createdAt,value
2018-10-09T00:00:21.448Z,100.00
2018-10-09T00:02:51.494Z,100.00
2018-10-09T00:05:25.003Z,100.00
2018-10-09T00:07:55.788Z,100.00
2018-10-09T00:10:25.799Z,100.00
2018-10-09T00:12:55.918Z,100.00
2018-10-09T00:15:27.013Z,100.00
2018-10-09T00:17:56.996Z,100.00
2018-10-09T00:20:28.751Z,100.00
2018-10-09T00:23:02.127Z,100.00
2018-10-09T00:25:33.792Z,100.00
2018-10-09T00:28:03.765Z,100.00
2018-10-09T00:30:33.661Z,100.00
2018-10-09T00:33:03.552Z,100.00
2018-10-09T00:35:33.381Z,100.00
2018-10-09T00:38:03.540Z,100.00
2018-10-09T00:40:33.796Z,100.00
2018-10-09T00:43:04.820Z,100.00
2018-10-09T00:45:34.732Z,100.00
2018-10-09T00:48:05.062Z,100.00
2018-10-09T00:50:35.080Z,100.00
2018-10-09T00:53:06.992Z,100.00
2018-10-09T00:55:36.895Z,100.00
2018-10-09T00:58:07.092Z,100.00
2018-10-09T01:00:37.245Z,100.00
2018-10-09T01:03:07.196Z,100.00
2018-10-09T01:05:37.006Z,100.00
2018-10-09T01:08:06.866Z,100.00
2018-10-09T01:10:36.943Z,100.00
2018-10-09T01:13:06.929Z,100.00
2018-10-09T01:15:36.981Z,100.00
2018-10-09T01:18:07.030Z,100.00
2018-10-09T01:20:36.943Z,100.00
2018-10-09T01:23:07.431Z,100.00
2018-10-09T01:25:37.749Z,100.00
2018-10-09T01:28:07.793Z,100.00
2018-10-09T01:30:38.282Z,100.00
2018-10-09T01:33:09.192Z,100.00
2018-10-09T01:35:39.372Z,100.00
2018-10-09T01:38:10.044Z,100.00
2018-10-09T01:40:39.978Z,100.00
2018-10-09T01:43:09.720Z,100.00
2018-10-09T01:45:39.812Z,100.00
2018-10-09T01:48:09.808Z,100.00
2018-10-09T01:50:39.566Z,100.00
2018-10-09T01:53:09.527Z,100.00
2018-10-09T01:55:39.640Z,100.00
2018-10-09T01:58:09.589Z,100.00
2018-10-09T02:00:39.320Z,100.00
2018-10-09T02:03:09.788Z,100.00
2018-10-09T02:05:39.729Z,100.00
2018-10-09T02:08:09.678Z,100.00
2018-10-09T02:10:39.656Z,100.00
2018-10-09T02:13:09.602Z,100.00
2018-10-09T02:15:39.665Z,100.00
2018-10-09T02:18:09.533Z,100.00
2018-10-09T02:20:39.667Z,100.00
2018-10-09T02:23:09.635Z,100.00
2018-10-09T02:25:40.229Z,100.00
2018-10-09T02:28:10.365Z,100.00
2018-10-09T02:30:40.663Z,100.00
2018-10-09T02:33:12.775Z,100.00
2018-10-09T02:35:42.390Z,100.00
2018-10-09T02:38:12.930Z,100.00
2018-10-09T02:40:43.118Z,100.00
2018-10-09T02:43:12.940Z,100.00
2018-10-09T02:45:43.002Z,100.00
2018-10-09T02:48:13.230Z,100.00
2018-10-09T02:50:43.655Z,100.00
2018-10-09T02:53:14.709Z,100.00
2018-10-09T02:55:44.599Z,100.00
2018-10-09T02:58:15.091Z,100.00
2018-10-09T03:00:45.043Z,100.00
2018-10-09T03:03:14.993Z,100.00
2018-10-09T03:05:45.249Z,100.00
2018-10-09T03:08:15.739Z,100.00
2018-10-09T03:10:46.536Z,100.00
2018-10-09T03:13:17.834Z,100.00
2018-10-09T03:15:47.842Z,99.97
2018-10-09T03:18:18.672Z,99.65
2018-10-09T03:20:48.792Z,100.00
2018-10-09T03:23:19.007Z,100.00
2018-10-09T03:25:48.933Z,100.00
2018-10-09T03:28:19.269Z,100.00
2018-10-09T03:30:49.714Z,100.00
2018-10-09T03:33:19.810Z,100.00
2018-10-09T03:35:51.429Z,100.00
2018-10-09T03:38:29.191Z,100.00
2018-10-09T03:40:59.557Z,100.00
2018-10-09T03:43:31.104Z,100.00
2018-10-09T03:46:01.588Z,100.00
2018-10-09T03:48:31.719Z,100.00
2018-10-09T03:51:02.703Z,100.00
2018-10-09T03:53:33.116Z,100.00
2018-10-09T03:56:03.395Z,100.00
2018-10-09T03:58:34.686Z,100.00
2018-10-09T04:01:05.666Z,100.00
2018-10-09T04:03:36.195Z,100.00
2018-10-09T04:06:08.300Z,100.00
2018-10-09T04:08:39.125Z,100.00
2018-10-09T04:11:10.025Z,100.00
2018-10-09T04:13:40.178Z,100.00
2018-10-09T04:16:11.995Z,100.00
2018-10-09T04:18:44.401Z,100.00
2018-10-09T04:21:14.612Z,100.00
2018-10-09T04:23:45.446Z,100.00
2018-10-09T04:26:15.729Z,100.00
2018-10-09T04:28:45.978Z,100.00
2018-10-09T04:31:16.089Z,100.00
2018-10-09T04:33:46.487Z,100.00
2018-10-09T04:36:16.718Z,100.00
2018-10-09T04:38:46.793Z,100.00
2018-10-09T04:41:17.731Z,100.00
2018-10-09T04:43:48.785Z,100.00
2018-10-09T04:46:18.965Z,100.00
2018-10-09T04:48:49.464Z,100.00
2018-10-09T04:51:19.627Z,100.00
2018-10-09T04:53:49.684Z,100.00
2018-10-09T04:56:19.891Z,100.00
2018-10-09T04:58:50.826Z,100.00
2018-10-09T05:01:23.111Z,100.00
2018-10-09T05:03:55.325Z,100.00
2018-10-09T05:06:25.978Z,100.00
2018-10-09T05:08:56.975Z,100.00
2018-10-09T05:11:28.269Z,100.00
2018-10-09T05:13:59.673Z,100.00
2018-10-09T05:16:29.793Z,100.00
2018-10-09T05:18:59.857Z,100.00
2018-10-09T05:21:31.652Z,100.00
2018-10-09T05:24:01.950Z,100.00
2018-10-09T05:26:32.876Z,100.00
2018-10-09T05:29:03.975Z,100.00
2018-10-09T05:31:34.520Z,100.00
2018-10-09T05:34:04.986Z,100.00
2018-10-09T05:36:36.458Z,100.00
2018-10-09T05:39:08.147Z,99.91
2018-10-09T05:41:38.799Z,98.83
2018-10-09T05:44:09.732Z,97.76
2018-10-09T05:46:41.714Z,95.35
2018-10-09T05:49:12.667Z,88.83
2018-10-09T05:51:43.392Z,86.25
2018-10-09T05:54:14.681Z,86.08
2018-10-09T05:56:44.630Z,86.91
2018-10-09T05:59:20.387Z,86.23
2018-10-09T06:01:51.763Z,80.50
2018-10-09T06:04:22.730Z,78.65
2018-10-09T06:06:53.040Z,74.76
2018-10-09T06:09:23.453Z,72.22
2018-10-09T06:11:53.742Z,70.20
2018-10-09T06:14:23.897Z,70.40
2018-10-09T06:16:54.174Z,72.40
2018-10-09T06:19:24.586Z,73.98
2018-10-09T06:21:54.804Z,77.70
2018-10-09T06:24:25.035Z,78.62
2018-10-09T06:26:55.517Z,80.12
2018-10-09T06:29:26.614Z,82.65
2018-10-09T06:31:57.510Z,83.68
2018-10-09T06:34:27.907Z,84.43
2018-10-09T06:36:58.038Z,85.27
2018-10-09T06:39:28.264Z,87.19
2018-10-09T06:41:58.485Z,87.49
2018-10-09T06:44:28.849Z,87.04
2018-10-09T06:46:59.135Z,87.23
2018-10-09T06:49:29.277Z,86.83
2018-10-09T06:51:59.583Z,86.62
2018-10-09T06:54:30.260Z,86.05
2018-10-09T06:57:00.703Z,85.75
2018-10-09T06:59:33.288Z,85.91
2018-10-09T07:02:04.032Z,85.75
2018-10-09T07:04:34.694Z,84.42
2018-10-09T07:07:04.831Z,82.53
2018-10-09T07:09:34.898Z,81.18
2018-10-09T07:12:05.291Z,79.82
2018-10-09T07:14:37.072Z,79.37
2018-10-09T07:17:07.333Z,79.25
2018-10-09T07:19:37.695Z,77.56
2018-10-09T07:22:08.135Z,78.76
2018-10-09T07:24:38.485Z,77.37
2018-10-09T07:27:08.978Z,77.37
2018-10-09T07:29:39.334Z,77.74
2018-10-09T07:32:10.816Z,78.66
2018-10-09T07:34:41.040Z,78.48
2018-10-09T07:37:11.273Z,73.04
2018-10-09T07:39:41.321Z,69.93
2018-10-09T07:42:11.863Z,65.07
2018-10-09T07:44:44.156Z,62.49
2018-10-09T07:47:14.735Z,61.44
2018-10-09T07:49:45.644Z,64.25
2018-10-09T07:52:15.615Z,64.03
2018-10-09T07:54:45.404Z,61.57
2018-10-09T07:57:15.101Z,62.67
2018-10-09T07:59:44.826Z,58.89
2018-10-09T08:02:14.602Z,59.59
2018-10-09T08:04:45.355Z,59.68
2018-10-09T08:07:15.215Z,62.83
2018-10-09T08:09:45.218Z,66.58
2018-10-09T08:12:15.045Z,63.75
2018-10-09T08:14:44.775Z,63.21
2018-10-09T08:17:14.599Z,70.09
2018-10-09T08:19:45.577Z,71.54
2018-10-09T08:22:15.817Z,72.66
2018-10-09T08:24:46.511Z,72.85
2018-10-09T08:27:17.196Z,73.38
2018-10-09T08:29:46.964Z,72.03
2018-10-09T08:32:16.862Z,72.51
2018-10-09T08:34:46.823Z,72.86
2018-10-09T08:37:16.627Z,67.52
2018-10-09T08:39:46.453Z,67.59
2018-10-09T08:42:17.011Z,70.90
2018-10-09T08:44:47.013Z,68.02
2018-10-09T08:47:16.703Z,65.93
2018-10-09T08:49:46.552Z,68.05
2018-10-09T08:52:16.345Z,73.40
2018-10-09T08:54:46.058Z,73.69
2018-10-09T08:57:16.461Z,74.20
2018-10-09T08:59:50.090Z,75.10
2018-10-09T09:02:19.996Z,75.58
2018-10-09T09:04:49.743Z,74.41
2018-10-09T09:07:19.507Z,76.78
2018-10-09T09:09:49.252Z,75.85
2018-10-09T09:12:19.021Z,77.40
2018-10-09T09:14:49.592Z,77.28
2018-10-09T09:17:19.361Z,75.64
2018-10-09T09:19:49.044Z,76.77
2018-10-09T09:22:18.932Z,75.75
2018-10-09T09:24:49.376Z,76.08
2018-10-09T09:27:19.286Z,76.44
2018-10-09T09:29:49.631Z,76.39
2018-10-09T09:32:19.533Z,75.53
2018-10-09T09:34:50.720Z,75.82
2018-10-09T09:37:20.856Z,75.66
2018-10-09T09:39:50.741Z,76.82
2018-10-09T09:42:20.757Z,75.27
2018-10-09T09:44:50.477Z,77.02
2018-10-09T09:47:20.320Z,76.20
2018-10-09T09:49:51.394Z,75.08
2018-10-09T09:52:21.537Z,73.28
2018-10-09T09:54:52.241Z,72.26
2018-10-09T09:57:23.670Z,74.68
2018-10-09T09:59:53.706Z,72.62
2018-10-09T10:02:23.804Z,72.03
2018-10-09T10:04:54.274Z,69.72
2018-10-09T10:07:24.813Z,71.25
2018-10-09T10:09:55.105Z,72.79
2018-10-09T10:12:25.800Z,74.05
2018-10-09T10:14:57.774Z,72.68
2018-10-09T10:17:27.574Z,72.54
2018-10-09T10:19:57.244Z,72.93
2018-10-09T10:22:27.539Z,71.31
2018-10-09T10:24:57.328Z,69.15
2018-10-09T10:27:27.093Z,71.07
2018-10-09T10:29:57.139Z,71.97
2018-10-09T10:32:27.023Z,71.72
2018-10-09T10:34:57.464Z,70.46
2018-10-09T10:37:27.577Z,72.46
2018-10-09T10:39:57.454Z,71.03
2018-10-09T10:42:27.156Z,70.25
2018-10-09T10:44:56.919Z,71.50
2018-10-09T10:47:26.763Z,72.27
2018-10-09T10:49:58.053Z,72.09
2018-10-09T10:52:28.477Z,72.51
2018-10-09T10:54:59.743Z,70.97
2018-10-09T10:57:29.908Z,72.04
2018-10-09T11:00:00.111Z,70.83
2018-10-09T11:02:30.257Z,71.60
2018-10-09T11:05:00.501Z,71.65
2018-10-09T11:07:31.172Z,70.76
2018-10-09T11:10:01.525Z,70.40
2018-10-09T11:12:32.172Z,69.79
2018-10-09T11:15:02.732Z,70.60
2018-10-09T11:17:33.550Z,71.77
2018-10-09T11:20:04.645Z,71.65
2018-10-09T11:22:36.592Z,68.70
2018-10-09T11:25:07.635Z,67.55
2018-10-09T11:27:37.614Z,67.56
2018-10-09T11:30:07.944Z,63.38
2018-10-09T11:32:38.640Z,62.97
2018-10-09T11:35:08.735Z,61.04
2018-10-09T11:37:38.494Z,59.75
2018-10-09T11:40:08.280Z,60.14
2018-10-09T11:42:38.040Z,60.69
2018-10-09T11:45:07.969Z,68.74
2018-10-09T11:47:37.934Z,71.48
2018-10-09T11:50:09.083Z,73.58
2018-10-09T11:52:38.834Z,74.95
2018-10-09T11:55:08.993Z,77.46
2018-10-09T11:57:40.918Z,80.35
2018-10-09T12:00:10.866Z,79.20
2018-10-09T12:02:41.166Z,80.46
2018-10-09T12:05:10.919Z,81.31
2018-10-09T12:07:41.263Z,78.93
2018-10-09T12:10:11.036Z,79.52
2018-10-09T12:12:41.088Z,80.96
2018-10-09T12:15:10.915Z,79.82
2018-10-09T12:17:40.599Z,82.22
2018-10-09T12:20:10.536Z,83.23
2018-10-09T12:22:40.307Z,81.37
2018-10-09T12:25:11.798Z,79.28
2018-10-09T12:27:41.663Z,82.05
2018-10-09T12:30:11.451Z,84.58
2018-10-09T12:32:41.574Z,83.53
2018-10-09T12:35:12.571Z,81.69
2018-10-09T12:37:42.410Z,83.05
2018-10-09T12:40:12.848Z,84.28
2018-10-09T12:42:43.128Z,84.52
2018-10-09T12:45:12.780Z,81.80
2018-10-09T12:47:42.536Z,82.04
2018-10-09T12:50:15.701Z,82.57
2018-10-09T12:52:45.753Z,81.42
2018-10-09T12:55:16.898Z,81.55
2018-10-09T12:57:47.397Z,80.91
2018-10-09T13:00:19.527Z,76.75
2018-10-09T13:02:50.794Z,78.33
2018-10-09T13:05:21.723Z,78.76
2018-10-09T13:07:52.047Z,74.27
2018-10-09T13:10:22.345Z,74.63
2018-10-09T13:12:54.055Z,74.69
2018-10-09T13:15:24.245Z,71.06
2018-10-09T13:17:55.233Z,71.89
2018-10-09T13:20:27.186Z,71.11
2018-10-09T13:22:58.986Z,70.95
2018-10-09T13:25:30.176Z,70.65
2018-10-09T13:27:59.955Z,70.54
2018-10-09T13:30:29.770Z,69.54
2018-10-09T13:32:59.639Z,70.15
2018-10-09T13:35:29.539Z,71.74
2018-10-09T13:37:59.381Z,69.98
2018-10-09T13:40:29.175Z,70.50
2018-10-09T13:42:59.196Z,70.18
2018-10-09T13:45:30.010Z,71.26
2018-10-09T13:48:06.422Z,70.86
2018-10-09T13:50:39.073Z,72.23
2018-10-09T13:53:09.184Z,72.77
2018-10-09T13:55:41.193Z,71.06
2018-10-09T13:58:11.765Z,72.37
2018-10-09T14:00:42.001Z,73.12
2018-10-09T14:03:12.788Z,74.29
2018-10-09T14:05:43.292Z,74.71
2018-10-09T14:08:13.558Z,74.71
2018-10-09T14:10:44.006Z,73.26
2018-10-09T14:13:13.957Z,72.11
2018-10-09T14:15:44.045Z,73.04
2018-10-09T14:18:14.757Z,61.93
2018-10-09T14:20:45.044Z,60.89
2018-10-09T14:23:14.795Z,59.93
2018-10-09T14:25:45.047Z,57.87
2018-10-09T14:28:14.836Z,59.43
2018-10-09T14:30:44.731Z,57.65
2018-10-09T14:33:15.400Z,56.90
2018-10-09T14:35:45.436Z,57.48
2018-10-09T14:38:15.612Z,59.23
2018-10-09T14:40:46.802Z,59.33
2018-10-09T14:43:16.551Z,60.78
2018-10-09T14:45:46.801Z,62.07
2018-10-09T14:48:17.021Z,62.57
2018-10-09T14:50:49.045Z,63.36
2018-10-09T14:53:19.345Z,62.53
2018-10-09T14:55:49.393Z,61.89
2018-10-09T14:58:20.651Z,62.00
2018-10-09T15:00:50.716Z,62.56
2018-10-09T15:03:20.974Z,63.34
2018-10-09T15:05:51.464Z,63.44
2018-10-09T15:08:21.850Z,62.91
2018-10-09T15:10:51.809Z,63.07
2018-10-09T15:13:21.490Z,62.99
2018-10-09T15:15:51.728Z,63.14
2018-10-09T15:18:21.482Z,63.83
2018-10-09T15:20:52.111Z,64.43
2018-10-09T15:23:22.283Z,66.39
2018-10-09T15:25:52.518Z,66.52
2018-10-09T15:28:22.193Z,67.37
2018-10-09T15:30:52.002Z,67.20
2018-10-09T15:33:21.773Z,67.41
2018-10-09T15:35:51.824Z,66.64
2018-10-09T15:38:22.568Z,66.87
2018-10-09T15:40:52.408Z,67.09
2018-10-09T15:43:23.541Z,67.89
2018-10-09T15:45:53.387Z,68.26
2018-10-09T15:48:24.356Z,68.95
2018-10-09T15:50:54.331Z,69.30
2018-10-09T15:53:24.113Z,69.78
2018-10-09T15:55:53.828Z,70.83
2018-10-09T15:58:23.773Z,71.76
2018-10-09T16:00:53.602Z,72.25
2018-10-09T16:03:23.431Z,72.52
2018-10-09T16:05:54.473Z,73.16
2018-10-09T16:08:24.351Z,73.40
2018-10-09T16:10:54.335Z,73.83
2018-10-09T16:13:24.108Z,73.96
2018-10-09T16:15:53.888Z,74.17
2018-10-09T16:18:24.703Z,74.37
2018-10-09T16:20:56.812Z,74.76
2018-10-09T16:23:27.982Z,74.22
2018-10-09T16:25:59.731Z,73.93
2018-10-09T16:28:29.814Z,74.25
2018-10-09T16:31:00.749Z,74.60
2018-10-09T16:33:30.485Z,74.48
2018-10-09T16:36:00.612Z,74.32
2018-10-09T16:38:33.614Z,73.68
2018-10-09T16:41:04.675Z,73.06
2018-10-09T16:43:34.628Z,73.00
2018-10-09T16:46:04.913Z,71.94
2018-10-09T16:48:36.102Z,73.36
2018-10-09T16:51:07.475Z,74.47
2018-10-09T16:53:37.863Z,73.79
2018-10-09T16:56:08.388Z,73.68
2018-10-09T16:58:40.768Z,73.61
2018-10-09T17:01:11.097Z,73.85
2018-10-09T17:03:41.373Z,73.34
2018-10-09T17:06:11.746Z,72.92
2018-10-09T17:08:47.576Z,72.05
2018-10-09T17:11:19.371Z,72.11
2018-10-09T17:13:49.751Z,71.60
2018-10-09T17:16:19.856Z,71.44
2018-10-09T17:18:49.610Z,71.34
2018-10-09T17:21:21.047Z,71.31
2018-10-09T17:23:56.246Z,72.09
2018-10-09T17:26:27.705Z,71.67
2018-10-09T17:28:58.358Z,71.74
2018-10-09T17:31:28.243Z,71.42
2018-10-09T17:33:58.681Z,71.55
2018-10-09T17:36:30.865Z,72.27
2018-10-09T17:39:00.936Z,71.91
2018-10-09T17:41:31.897Z,71.45
2018-10-09T17:44:01.986Z,72.50
2018-10-09T17:46:32.196Z,72.66
2018-10-09T17:49:02.360Z,73.04
2018-10-09T17:51:32.090Z,73.34
2018-10-09T17:54:02.561Z,73.69
2018-10-09T17:56:33.631Z,74.03
2018-10-09T17:59:03.812Z,74.28
2018-10-09T18:01:33.655Z,74.44
2018-10-09T18:04:04.282Z,74.43
2018-10-09T18:06:34.185Z,74.05
2018-10-09T18:09:05.507Z,74.46
2018-10-09T18:11:35.420Z,74.57
2018-10-09T18:14:05.990Z,74.21
2018-10-09T18:16:35.757Z,74.49
2018-10-09T18:19:07.400Z,74.26
2018-10-09T18:21:37.707Z,74.97
2018-10-09T18:24:11.526Z,74.58
2018-10-09T18:26:42.802Z,75.34
2018-10-09T18:29:13.666Z,75.92
2018-10-09T18:31:45.066Z,76.21
2018-10-09T18:34:17.001Z,76.48
2018-10-09T18:36:48.230Z,76.44
2018-10-09T18:39:18.574Z,76.77
2018-10-09T18:41:49.493Z,77.11
2018-10-09T18:44:21.530Z,77.08
2018-10-09T18:46:51.313Z,78.18
2018-10-09T18:49:21.845Z,78.05
2018-10-09T18:51:51.738Z,78.96
2018-10-09T18:54:21.669Z,79.61
2018-10-09T18:56:51.463Z,79.71
2018-10-09T18:59:21.940Z,80.00
2018-10-09T19:01:51.654Z,79.99
2018-10-09T19:04:21.387Z,80.36
2018-10-09T19:06:51.188Z,80.06
2018-10-09T19:09:20.958Z,80.50
2018-10-09T19:11:50.727Z,80.89
2018-10-09T19:14:20.573Z,80.61
2018-10-09T19:16:50.463Z,80.85
2018-10-09T19:19:20.963Z,81.23
2018-10-09T19:21:51.514Z,81.33
2018-10-09T19:24:31.382Z,81.99
2018-10-09T19:27:01.609Z,81.65
2018-10-09T19:29:31.517Z,82.45
2018-10-09T19:32:01.195Z,82.83
2018-10-09T19:34:34.935Z,82.96
2018-10-09T19:37:06.087Z,82.81
2018-10-09T19:39:37.651Z,83.28
2018-10-09T19:42:08.363Z,83.12
2018-10-09T19:44:38.217Z,83.59
2018-10-09T19:47:08.081Z,83.62
2018-10-09T19:49:37.845Z,83.26
2018-10-09T19:52:10.987Z,82.77
2018-10-09T19:54:40.790Z,83.32
2018-10-09T19:57:11.658Z,83.95
2018-10-09T19:59:41.691Z,83.84
2018-10-09T20:02:12.694Z,83.76
2018-10-09T20:04:43.651Z,84.38
2018-10-09T20:07:15.949Z,84.34
2018-10-09T20:09:46.106Z,83.58
2018-10-09T20:12:15.891Z,83.68
2018-10-09T20:14:46.901Z,83.88
2018-10-09T20:17:17.589Z,83.99
2018-10-09T20:19:47.648Z,84.89
2018-10-09T20:22:17.725Z,84.44
2018-10-09T20:24:47.464Z,84.47
2018-10-09T20:27:17.490Z,84.72
2018-10-09T20:29:47.866Z,84.57
2018-10-09T20:32:18.098Z,84.79
2018-10-09T20:34:48.774Z,84.79
2018-10-09T20:37:18.909Z,84.71
2018-10-09T20:39:50.070Z,85.02
2018-10-09T20:42:20.598Z,85.37
2018-10-09T20:44:51.004Z,85.21
2018-10-09T20:47:26.041Z,85.89
2018-10-09T20:49:57.138Z,85.72
2018-10-09T20:52:28.253Z,86.11
2018-10-09T20:54:58.002Z,85.84
2018-10-09T20:57:28.197Z,85.84
2018-10-09T20:59:58.183Z,85.73
2018-10-09T21:02:28.364Z,85.50
2018-10-09T21:04:58.948Z,85.74
2018-10-09T21:07:30.749Z,85.92
2018-10-09T21:10:01.247Z,86.01
2018-10-09T21:12:32.313Z,85.98
2018-10-09T21:15:04.642Z,85.92
2018-10-09T21:17:35.352Z,86.16
2018-10-09T21:20:05.635Z,86.27
2018-10-09T21:22:35.588Z,85.83
2018-10-09T21:25:08.946Z,86.54
2018-10-09T21:27:38.776Z,87.08
2018-10-09T21:30:08.888Z,86.93
2018-10-09T21:32:39.362Z,87.78
2018-10-09T21:35:09.356Z,87.99
2018-10-09T21:37:39.195Z,88.15
2018-10-09T21:40:09.100Z,88.19
2018-10-09T21:42:38.896Z,88.11
2018-10-09T21:45:10.014Z,88.13
2018-10-09T21:47:43.823Z,88.86
2018-10-09T21:50:13.727Z,88.32
2018-10-09T21:52:43.400Z,89.01
2018-10-09T21:55:13.526Z,89.44
2018-10-09T21:57:43.560Z,89.42
2018-10-09T22:00:14.362Z,90.03
2018-10-09T22:02:44.280Z,89.25
2018-10-09T22:05:14.440Z,89.46
2018-10-09T22:07:44.182Z,89.81
2018-10-09T22:10:13.851Z,89.72
2018-10-09T22:12:43.608Z,89.96
2018-10-09T22:15:13.498Z,90.38
2018-10-09T22:17:43.199Z,89.99
2018-10-09T22:20:12.974Z,90.07
2018-10-09T22:22:42.809Z,90.07
2018-10-09T22:25:12.658Z,90.20
2018-10-09T22:27:42.936Z,90.12
2018-10-09T22:30:12.816Z,90.94
2018-10-09T22:32:42.822Z,91.28
2018-10-09T22:35:12.765Z,90.97
2018-10-09T22:37:42.569Z,91.84
2018-10-09T22:40:12.446Z,91.37
2018-10-09T22:42:42.277Z,92.04
2018-10-09T22:45:12.126Z,91.81
2018-10-09T22:47:42.219Z,91.93
2018-10-09T22:50:12.495Z,92.11
2018-10-09T22:52:44.035Z,92.59
2018-10-09T22:55:14.016Z,92.58
2018-10-09T22:57:43.831Z,92.79
2018-10-09T23:00:14.072Z,92.91
2018-10-09T23:02:46.140Z,93.30
2018-10-09T23:05:17.191Z,93.84
2018-10-09T23:07:47.292Z,94.06
2018-10-09T23:10:17.496Z,94.18
2018-10-09T23:12:47.699Z,94.37
2018-10-09T23:15:18.835Z,94.94
2018-10-09T23:17:49.212Z,95.06
2018-10-09T23:20:20.729Z,94.80
2018-10-09T23:22:50.724Z,94.75
2018-10-09T23:25:21.159Z,95.95
2018-10-09T23:27:51.714Z,95.72
2018-10-09T23:30:22.090Z,95.81
2018-10-09T23:32:52.705Z,96.67
2018-10-09T23:35:24.460Z,96.57
2018-10-09T23:37:54.700Z,96.37
2018-10-09T23:40:24.883Z,97.26
2018-10-09T23:42:55.119Z,97.12
2018-10-09T23:45:25.727Z,97.20
2018-10-09T23:48:01.903Z,97.28
2018-10-09T23:50:33.024Z,97.98
2018-10-09T23:53:03.463Z,97.87
2018-10-09T23:55:35.288Z,98.34
2018-10-09T23:58:05.558Z,98.45
